Terminal Aerodrome Forecast
Issued by NWS Atlanta, GA

Home | Current Version | Previous Version | Text Only | Print | Product List | Glossary On
Versions: 1 2 3 4 5 6 7 8 9 10 11 12 13 14 15 16 17 18 19
000
FTUS42 KFFC 272323
TAFMCN
TAF
KMCN 272323Z 2800/2824 15005KT P6SM VCSH BKN045
      TEMPO 2800/2802 VRB15G30KT 1SM +TSRA BR BKN010CB
     FM280200 24004KT P6SM SCT250
     FM280700 00000KT 6SM BR BKN006
     FM281500 18007KT P6SM BKN012
     FM281900 19008KT P6SM SCT045=

USA.gov is the U.S. government's official web portal to all federal, state and local government web resources and services.